sensor_id;sensor_type;location;lat;lon;timestamp;temperature;humidity
20319;DHT22;10317;47.254;11.314;2023-12-04T00:00:35;-7.70;99.90
20319;DHT22;10317;47.254;11.314;2023-12-04T00:05:27;-7.70;99.90
20319;DHT22;10317;47.254;11.314;2023-12-04T00:07:53;-7.70;99.90
20319;DHT22;10317;47.254;11.314;2023-12-04T00:10:18;-7.80;99.90
20319;DHT22;10317;47.254;11.314;2023-12-04T00:12:44;-7.80;99.90
20319;DHT22;10317;47.254;11.314;2023-12-04T00:15:10;-7.80;99.90
20319;DHT22;10317;47.254;11.314;2023-12-04T00:17:36;-7.90;99.90
20319;DHT22;10317;47.254;11.314;2023-12-04T00:20:06;-7.80;99.90
20319;DHT22;10317;47.254;11.314;2023-12-04T00:22:32;-7.80;99.90
20319;DHT22;10317;47.254;11.314;2023-12-04T00:24:57;-7.80;99.90
20319;DHT22;10317;47.254;11.314;2023-12-04T00:27:23;-7.80;99.90
20319;DHT22;10317;47.254;11.314;2023-12-04T00:29:52;-7.80;99.90
20319;DHT22;10317;47.254;11.314;2023-12-04T00:32:18;-7.80;99.90
20319;DHT22;10317;47.254;11.314;2023-12-04T00:34:44;-7.80;99.90
20319;DHT22;10317;47.254;11.314;2023-12-04T00:37:09;-7.80;99.90
20319;DHT22;10317;47.254;11.314;2023-12-04T00:39:35;-7.80;99.90
20319;DHT22;10317;47.254;11.314;2023-12-04T00:42:00;-7.80;99.90
20319;DHT22;10317;47.254;11.314;2023-12-04T00:44:26;-7.80;99.90
20319;DHT22;10317;47.254;11.314;2023-12-04T00:46:52;-7.80;99.90
20319;DHT22;10317;47.254;11.314;2023-12-04T00:49:18;-7.80;99.90
20319;DHT22;10317;47.254;11.314;2023-12-04T00:51:44;-7.90;99.90
20319;DHT22;10317;47.254;11.314;2023-12-04T00:54:10;-7.90;99.90
20319;DHT22;10317;47.254;11.314;2023-12-04T00:56:38;-7.90;99.90
20319;DHT22;10317;47.254;11.314;2023-12-04T00:59:05;-7.90;99.90
20319;DHT22;10317;47.254;11.314;2023-12-04T01:01:32;-7.80;99.90
20319;DHT22;10317;47.254;11.314;2023-12-04T01:03:58;-7.90;99.90
20319;DHT22;10317;47.254;11.314;2023-12-04T01:06:24;-7.90;99.90
20319;DHT22;10317;47.254;11.314;2023-12-04T01:08:50;-7.90;99.90
20319;DHT22;10317;47.254;11.314;2023-12-04T01:11:17;-7.90;99.90
20319;DHT22;10317;47.254;11.314;2023-12-04T01:13:42;-7.90;99.90
20319;DHT22;10317;47.254;11.314;2023-12-04T01:16:08;-8.00;99.90
20319;DHT22;10317;47.254;11.314;2023-12-04T01:18:35;-8.00;99.90
20319;DHT22;10317;47.254;11.314;2023-12-04T01:21:01;-8.00;99.90
20319;DHT22;10317;47.254;11.314;2023-12-04T01:23:27;-8.00;99.90
20319;DHT22;10317;47.254;11.314;2023-12-04T01:25:53;-8.00;99.90
20319;DHT22;10317;47.254;11.314;2023-12-04T01:28:19;-8.00;99.90
20319;DHT22;10317;47.254;11.314;2023-12-04T01:30:44;-8.00;99.90
20319;DHT22;10317;47.254;11.314;2023-12-04T01:33:10;-8.00;99.90
20319;DHT22;10317;47.254;11.314;2023-12-04T01:35:36;-8.00;99.90
20319;DHT22;10317;47.254;11.314;2023-12-04T01:38:02;-7.90;99.90
20319;DHT22;10317;47.254;11.314;2023-12-04T01:40:27;-7.90;99.90
20319;DHT22;10317;47.254;11.314;2023-12-04T01:42:53;-7.90;99.90
20319;DHT22;10317;47.254;11.314;2023-12-04T01:45:19;-8.00;99.90
20319;DHT22;10317;47.254;11.314;2023-12-04T01:47:45;-8.00;99.90
20319;DHT22;10317;47.254;11.314;2023-12-04T01:50:12;-8.00;99.90
20319;DHT22;10317;47.254;11.314;2023-12-04T01:52:40;-7.90;99.90
20319;DHT22;10317;47.254;11.314;2023-12-04T01:55:07;-7.90;99.90
20319;DHT22;10317;47.254;11.314;2023-12-04T01:57:34;-7.90;99.90
20319;DHT22;10317;47.254;11.314;2023-12-04T02:00:00;-7.90;99.90
20319;DHT22;10317;47.254;11.314;2023-12-04T02:02:27;-7.90;99.90
20319;DHT22;10317;47.254;11.314;2023-12-04T02:04:58;-7.90;99.90
20319;DHT22;10317;47.254;11.314;2023-12-04T02:07:24;-7.90;99.90
20319;DHT22;10317;47.254;11.314;2023-12-04T02:09:50;-7.90;99.90
20319;DHT22;10317;47.254;11.314;2023-12-04T02:12:16;-7.90;99.90
20319;DHT22;10317;47.254;11.314;2023-12-04T02:14:42;-7.90;99.90
20319;DHT22;10317;47.254;11.314;2023-12-04T02:17:09;-8.00;99.90
20319;DHT22;10317;47.254;11.314;2023-12-04T02:19:36;-8.00;99.90
20319;DHT22;10317;47.254;11.314;2023-12-04T02:22:01;-8.00;99.90
20319;DHT22;10317;47.254;11.314;2023-12-04T02:24:27;-8.00;99.90
20319;DHT22;10317;47.254;11.314;2023-12-04T02:26:58;-8.00;99.90
20319;DHT22;10317;47.254;11.314;2023-12-04T02:29:35;-8.00;99.90
20319;DHT22;10317;47.254;11.314;2023-12-04T02:32:04;-7.90;99.90
20319;DHT22;10317;47.254;11.314;2023-12-04T02:34:32;-7.90;99.90
20319;DHT22;10317;47.254;11.314;2023-12-04T02:36:59;-7.90;99.90
20319;DHT22;10317;47.254;11.314;2023-12-04T02:39:26;-7.90;99.90
20319;DHT22;10317;47.254;11.314;2023-12-04T02:41:51;-7.90;99.90
20319;DHT22;10317;47.254;11.314;2023-12-04T02:44:17;-7.90;99.90
20319;DHT22;10317;47.254;11.314;2023-12-04T02:46:43;-7.90;99.90
20319;DHT22;10317;47.254;11.314;2023-12-04T02:49:09;-7.90;99.90
20319;DHT22;10317;47.254;11.314;2023-12-04T02:51:34;-7.90;99.90
20319;DHT22;10317;47.254;11.314;2023-12-04T02:54:00;-7.90;99.90
20319;DHT22;10317;47.254;11.314;2023-12-04T02:56:25;-7.90;99.90
20319;DHT22;10317;47.254;11.314;2023-12-04T02:58:51;-7.90;99.90
20319;DHT22;10317;47.254;11.314;2023-12-04T03:01:17;-7.90;99.90
20319;DHT22;10317;47.254;11.314;2023-12-04T03:03:42;-7.90;99.90
20319;DHT22;10317;47.254;11.314;2023-12-04T03:06:08;-7.90;99.90
20319;DHT22;10317;47.254;11.314;2023-12-04T03:08:34;-7.90;99.90
20319;DHT22;10317;47.254;11.314;2023-12-04T03:11:01;-7.90;99.90
20319;DHT22;10317;47.254;11.314;2023-12-04T03:13:27;-7.90;99.90
20319;DHT22;10317;47.254;11.314;2023-12-04T03:15:53;-7.90;99.90
20319;DHT22;10317;47.254;11.314;2023-12-04T03:18:19;-7.90;99.90
20319;DHT22;10317;47.254;11.314;2023-12-04T03:20:44;-7.90;99.90
20319;DHT22;10317;47.254;11.314;2023-12-04T03:23:10;-7.80;99.90
20319;DHT22;10317;47.254;11.314;2023-12-04T03:25:36;-7.80;99.90
20319;DHT22;10317;47.254;11.314;2023-12-04T03:28:01;-7.80;99.90
20319;DHT22;10317;47.254;11.314;2023-12-04T03:30:27;-7.70;99.90
20319;DHT22;10317;47.254;11.314;2023-12-04T03:32:53;-7.70;99.90
20319;DHT22;10317;47.254;11.314;2023-12-04T03:35:19;-7.60;99.90
20319;DHT22;10317;47.254;11.314;2023-12-04T03:37:44;-7.60;99.90
20319;DHT22;10317;47.254;11.314;2023-12-04T03:40:11;-7.60;99.90
20319;DHT22;10317;47.254;11.314;2023-12-04T03:42:36;-7.60;99.90
20319;DHT22;10317;47.254;11.314;2023-12-04T03:45:02;-7.50;99.90
20319;DHT22;10317;47.254;11.314;2023-12-04T03:47:28;-7.50;99.90
20319;DHT22;10317;47.254;11.314;2023-12-04T03:49:54;-7.50;99.90
20319;DHT22;10317;47.254;11.314;2023-12-04T03:52:19;-7.50;99.90
20319;DHT22;10317;47.254;11.314;2023-12-04T03:54:45;-7.60;99.90
20319;DHT22;10317;47.254;11.314;2023-12-04T03:57:10;-7.60;99.90
20319;DHT22;10317;47.254;11.314;2023-12-04T03:59:36;-7.50;99.90
20319;DHT22;10317;47.254;11.314;2023-12-04T04:02:02;-7.50;99.90
20319;DHT22;10317;47.254;11.314;2023-12-04T04:04:27;-7.50;99.90
20319;DHT22;10317;47.254;11.314;2023-12-04T04:06:53;-7.40;99.90
20319;DHT22;10317;47.254;11.314;2023-12-04T04:09:19;-7.40;99.90
20319;DHT22;10317;47.254;11.314;2023-12-04T04:11:45;-7.30;99.90
20319;DHT22;10317;47.254;11.314;2023-12-04T04:14:11;-7.10;99.90
20319;DHT22;10317;47.254;11.314;2023-12-04T04:16:37;-7.10;99.90
20319;DHT22;10317;47.254;11.314;2023-12-04T04:19:02;-7.10;99.90
20319;DHT22;10317;47.254;11.314;2023-12-04T04:21:28;-7.00;99.90
20319;DHT22;10317;47.254;11.314;2023-12-04T04:23:53;-7.00;99.90
20319;DHT22;10317;47.254;11.314;2023-12-04T04:26:19;-6.90;99.90
20319;DHT22;10317;47.254;11.314;2023-12-04T04:28:45;-6.90;99.90
20319;DHT22;10317;47.254;11.314;2023-12-04T04:31:10;-6.90;99.90
20319;DHT22;10317;47.254;11.314;2023-12-04T04:33:36;-6.90;99.90
20319;DHT22;10317;47.254;11.314;2023-12-04T04:36:02;-6.90;99.90
20319;DHT22;10317;47.254;11.314;2023-12-04T04:38:28;-6.90;99.90
20319;DHT22;10317;47.254;11.314;2023-12-04T04:40:53;-6.90;99.90
20319;DHT22;10317;47.254;11.314;2023-12-04T04:43:20;-6.80;99.90
20319;DHT22;10317;47.254;11.314;2023-12-04T04:45:45;-6.80;99.90
20319;DHT22;10317;47.254;11.314;2023-12-04T04:48:11;-6.80;99.90
20319;DHT22;10317;47.254;11.314;2023-12-04T04:50:37;-6.80;99.90
20319;DHT22;10317;47.254;11.314;2023-12-04T04:53:02;-6.70;99.90
20319;DHT22;10317;47.254;11.314;2023-12-04T04:55:28;-6.70;99.90
20319;DHT22;10317;47.254;11.314;2023-12-04T04:57:53;-6.70;99.90
20319;DHT22;10317;47.254;11.314;2023-12-04T05:00:19;-6.70;99.90
20319;DHT22;10317;47.254;11.314;2023-12-04T05:02:45;-6.60;99.90
20319;DHT22;10317;47.254;11.314;2023-12-04T05:05:11;-6.60;99.90
20319;DHT22;10317;47.254;11.314;2023-12-04T05:07:37;-6.50;99.90
20319;DHT22;10317;47.254;11.314;2023-12-04T05:10:02;-6.50;99.90
20319;DHT22;10317;47.254;11.314;2023-12-04T05:12:28;-6.50;99.90
20319;DHT22;10317;47.254;11.314;2023-12-04T05:14:54;-6.50;99.90
20319;DHT22;10317;47.254;11.314;2023-12-04T05:17:19;-6.40;99.90
20319;DHT22;10317;47.254;11.314;2023-12-04T05:19:45;-6.40;99.90
20319;DHT22;10317;47.254;11.314;2023-12-04T05:22:11;-6.30;99.90
20319;DHT22;10317;47.254;11.314;2023-12-04T05:24:36;-6.30;99.90
20319;DHT22;10317;47.254;11.314;2023-12-04T05:27:02;-6.30;99.90
20319;DHT22;10317;47.254;11.314;2023-12-04T05:29:28;-6.20;99.90
20319;DHT22;10317;47.254;11.314;2023-12-04T05:31:53;-6.30;99.90
20319;DHT22;10317;47.254;11.314;2023-12-04T05:34:19;-6.30;99.90
20319;DHT22;10317;47.254;11.314;2023-12-04T05:36:45;-6.40;99.90
20319;DHT22;10317;47.254;11.314;2023-12-04T05:39:10;-6.30;99.90
20319;DHT22;10317;47.254;11.314;2023-12-04T05:41:36;-6.30;99.90
20319;DHT22;10317;47.254;11.314;2023-12-04T05:44:02;-6.30;99.90
20319;DHT22;10317;47.254;11.314;2023-12-04T05:46:28;-6.30;99.90
20319;DHT22;10317;47.254;11.314;2023-12-04T05:48:54;-6.30;99.90
20319;DHT22;10317;47.254;11.314;2023-12-04T05:51:19;-6.30;99.90
20319;DHT22;10317;47.254;11.314;2023-12-04T05:53:46;-6.30;99.90
20319;DHT22;10317;47.254;11.314;2023-12-04T05:56:12;-6.30;99.90
20319;DHT22;10317;47.254;11.314;2023-12-04T05:58:37;-6.20;99.90
20319;DHT22;10317;47.254;11.314;2023-12-04T06:01:03;-6.20;99.90
20319;DHT22;10317;47.254;11.314;2023-12-04T06:03:29;-6.20;99.90
20319;DHT22;10317;47.254;11.314;2023-12-04T06:05:54;-6.30;99.90
20319;DHT22;10317;47.254;11.314;2023-12-04T06:08:20;-6.20;99.90
20319;DHT22;10317;47.254;11.314;2023-12-04T06:10:46;-6.20;99.90
20319;DHT22;10317;47.254;11.314;2023-12-04T06:13:12;-6.20;99.90
20319;DHT22;10317;47.254;11.314;2023-12-04T06:15:37;-6.20;99.90
20319;DHT22;10317;47.254;11.314;2023-12-04T06:18:03;-6.20;99.90
20319;DHT22;10317;47.254;11.314;2023-12-04T06:20:30;-6.20;99.90
20319;DHT22;10317;47.254;11.314;2023-12-04T06:22:55;-6.20;99.90
20319;DHT22;10317;47.254;11.314;2023-12-04T06:25:21;-6.10;99.90
20319;DHT22;10317;47.254;11.314;2023-12-04T06:27:48;-6.10;99.90
20319;DHT22;10317;47.254;11.314;2023-12-04T06:30:14;-6.10;99.90
20319;DHT22;10317;47.254;11.314;2023-12-04T06:32:40;-6.10;99.90
20319;DHT22;10317;47.254;11.314;2023-12-04T06:35:06;-6.00;99.90
20319;DHT22;10317;47.254;11.314;2023-12-04T06:37:32;-5.90;99.90
20319;DHT22;10317;47.254;11.314;2023-12-04T06:40:00;-5.90;99.90
20319;DHT22;10317;47.254;11.314;2023-12-04T06:42:28;-5.90;99.90
20319;DHT22;10317;47.254;11.314;2023-12-04T06:44:54;-5.90;99.90
20319;DHT22;10317;47.254;11.314;2023-12-04T06:47:22;-5.80;99.90
20319;DHT22;10317;47.254;11.314;2023-12-04T06:49:48;-5.80;99.90
20319;DHT22;10317;47.254;11.314;2023-12-04T06:52:14;-5.70;99.90
20319;DHT22;10317;47.254;11.314;2023-12-04T06:54:40;-5.60;99.90
20319;DHT22;10317;47.254;11.314;2023-12-04T06:57:05;-5.60;99.90
20319;DHT22;10317;47.254;11.314;2023-12-04T06:59:31;-5.60;99.90
20319;DHT22;10317;47.254;11.314;2023-12-04T07:01:57;-5.50;99.90
20319;DHT22;10317;47.254;11.314;2023-12-04T07:04:22;-5.50;99.90
20319;DHT22;10317;47.254;11.314;2023-12-04T07:06:48;-5.50;99.90
20319;DHT22;10317;47.254;11.314;2023-12-04T07:09:14;-5.50;99.90
20319;DHT22;10317;47.254;11.314;2023-12-04T07:11:42;-5.40;99.90
20319;DHT22;10317;47.254;11.314;2023-12-04T07:14:08;-5.40;99.90
20319;DHT22;10317;47.254;11.314;2023-12-04T07:16:42;-5.30;99.90
20319;DHT22;10317;47.254;11.314;2023-12-04T07:19:08;-5.30;99.90
20319;DHT22;10317;47.254;11.314;2023-12-04T07:21:35;-5.20;99.90
20319;DHT22;10317;47.254;11.314;2023-12-04T07:24:01;-5.10;99.90
20319;DHT22;10317;47.254;11.314;2023-12-04T07:26:26;-5.10;99.90
20319;DHT22;10317;47.254;11.314;2023-12-04T07:28:52;-5.10;99.90
20319;DHT22;10317;47.254;11.314;2023-12-04T07:31:17;-5.00;99.90
20319;DHT22;10317;47.254;11.314;2023-12-04T07:33:43;-4.90;99.90
20319;DHT22;10317;47.254;11.314;2023-12-04T07:36:09;-4.90;99.90
20319;DHT22;10317;47.254;11.314;2023-12-04T07:38:34;-4.80;99.90
20319;DHT22;10317;47.254;11.314;2023-12-04T07:41:00;-4.70;99.90
20319;DHT22;10317;47.254;11.314;2023-12-04T07:43:26;-4.70;99.90
20319;DHT22;10317;47.254;11.314;2023-12-04T07:45:54;-4.70;99.90
20319;DHT22;10317;47.254;11.314;2023-12-04T07:48:20;-4.60;99.90
20319;DHT22;10317;47.254;11.314;2023-12-04T07:50:46;-4.50;99.90
20319;DHT22;10317;47.254;11.314;2023-12-04T07:53:11;-4.50;99.90
20319;DHT22;10317;47.254;11.314;2023-12-04T07:55:38;-4.40;99.90
20319;DHT22;10317;47.254;11.314;2023-12-04T07:58:04;-4.40;99.90
20319;DHT22;10317;47.254;11.314;2023-12-04T08:00:30;-4.40;99.90
20319;DHT22;10317;47.254;11.314;2023-12-04T08:02:55;-4.40;99.90
20319;DHT22;10317;47.254;11.314;2023-12-04T08:05:21;-4.30;99.90
20319;DHT22;10317;47.254;11.314;2023-12-04T08:07:47;-4.30;99.90
20319;DHT22;10317;47.254;11.314;2023-12-04T08:10:13;-4.30;99.90
20319;DHT22;10317;47.254;11.314;2023-12-04T08:12:38;-4.20;99.90
20319;DHT22;10317;47.254;11.314;2023-12-04T08:15:05;-4.30;99.90
20319;DHT22;10317;47.254;11.314;2023-12-04T08:17:31;-4.30;99.90
20319;DHT22;10317;47.254;11.314;2023-12-04T08:19:56;-4.30;99.90
20319;DHT22;10317;47.254;11.314;2023-12-04T08:22:22;-4.20;99.90
20319;DHT22;10317;47.254;11.314;2023-12-04T08:24:48;-4.20;99.90
20319;DHT22;10317;47.254;11.314;2023-12-04T08:27:14;-4.10;99.90
20319;DHT22;10317;47.254;11.314;2023-12-04T08:29:40;-4.20;99.90
20319;DHT22;10317;47.254;11.314;2023-12-04T08:32:06;-4.10;99.90
20319;DHT22;10317;47.254;11.314;2023-12-04T08:34:31;-4.00;99.90
20319;DHT22;10317;47.254;11.314;2023-12-04T08:36:57;-4.00;99.90
20319;DHT22;10317;47.254;11.314;2023-12-04T08:39:23;-3.90;99.90
20319;DHT22;10317;47.254;11.314;2023-12-04T08:41:48;-3.80;99.90
20319;DHT22;10317;47.254;11.314;2023-12-04T08:44:14;-3.80;99.90
20319;DHT22;10317;47.254;11.314;2023-12-04T08:46:41;-3.80;99.90
20319;DHT22;10317;47.254;11.314;2023-12-04T08:49:07;-3.80;99.90
20319;DHT22;10317;47.254;11.314;2023-12-04T08:51:32;-3.70;99.90
20319;DHT22;10317;47.254;11.314;2023-12-04T08:53:58;-3.60;99.90
20319;DHT22;10317;47.254;11.314;2023-12-04T08:56:23;-3.60;99.90
20319;DHT22;10317;47.254;11.314;2023-12-04T08:58:49;-3.60;99.90
20319;DHT22;10317;47.254;11.314;2023-12-04T09:01:16;-3.60;99.90
20319;DHT22;10317;47.254;11.314;2023-12-04T09:03:41;-3.60;99.90
20319;DHT22;10317;47.254;11.314;2023-12-04T09:06:08;-3.50;99.90
20319;DHT22;10317;47.254;11.314;2023-12-04T09:08:34;-3.40;99.90
20319;DHT22;10317;47.254;11.314;2023-12-04T09:11:00;-3.50;99.90
20319;DHT22;10317;47.254;11.314;2023-12-04T09:13:26;-3.40;99.90
20319;DHT22;10317;47.254;11.314;2023-12-04T09:15:51;-3.30;99.90
20319;DHT22;10317;47.254;11.314;2023-12-04T09:18:17;-3.20;99.90
20319;DHT22;10317;47.254;11.314;2023-12-04T09:20:43;-3.10;99.90
20319;DHT22;10317;47.254;11.314;2023-12-04T09:23:09;-3.00;99.90
20319;DHT22;10317;47.254;11.314;2023-12-04T09:25:35;-3.00;99.90
20319;DHT22;10317;47.254;11.314;2023-12-04T09:28:01;-2.80;99.90
20319;DHT22;10317;47.254;11.314;2023-12-04T09:30:26;-2.70;99.90
20319;DHT22;10317;47.254;11.314;2023-12-04T09:32:52;-2.50;99.90
20319;DHT22;10317;47.254;11.314;2023-12-04T09:35:18;-2.30;99.90
20319;DHT22;10317;47.254;11.314;2023-12-04T09:37:44;-2.30;99.90
20319;DHT22;10317;47.254;11.314;2023-12-04T09:40:11;-2.20;99.90
20319;DHT22;10317;47.254;11.314;2023-12-04T09:42:39;-1.90;99.90
20319;DHT22;10317;47.254;11.314;2023-12-04T09:45:06;-1.70;99.90
20319;DHT22;10317;47.254;11.314;2023-12-04T09:47:33;-1.60;99.90
20319;DHT22;10317;47.254;11.314;2023-12-04T09:50:00;-1.50;99.90
20319;DHT22;10317;47.254;11.314;2023-12-04T09:52:27;-1.40;99.90
20319;DHT22;10317;47.254;11.314;2023-12-04T09:54:53;-1.20;99.90
20319;DHT22;10317;47.254;11.314;2023-12-04T09:57:19;-0.90;99.90
20319;DHT22;10317;47.254;11.314;2023-12-04T09:59:45;-0.70;99.90
20319;DHT22;10317;47.254;11.314;2023-12-04T10:02:11;-0.70;99.90
20319;DHT22;10317;47.254;11.314;2023-12-04T10:04:37;-0.80;99.90
20319;DHT22;10317;47.254;11.314;2023-12-04T10:07:03;-0.80;99.90
20319;DHT22;10317;47.254;11.314;2023-12-04T10:09:30;-0.90;99.90
20319;DHT22;10317;47.254;11.314;2023-12-04T10:11:56;-0.90;99.90
20319;DHT22;10317;47.254;11.314;2023-12-04T10:14:22;-0.80;99.90
20319;DHT22;10317;47.254;11.314;2023-12-04T10:16:49;-0.80;99.90
20319;DHT22;10317;47.254;11.314;2023-12-04T10:19:23;-0.60;99.90
20319;DHT22;10317;47.254;11.314;2023-12-04T10:21:51;-0.50;99.90
20319;DHT22;10317;47.254;11.314;2023-12-04T10:24:46;-0.40;99.90
20319;DHT22;10317;47.254;11.314;2023-12-04T10:27:12;-0.30;99.90
20319;DHT22;10317;47.254;11.314;2023-12-04T10:32:08;-0.30;99.90
20319;DHT22;10317;47.254;11.314;2023-12-04T10:34:33;-0.20;99.90
20319;DHT22;10317;47.254;11.314;2023-12-04T10:36:59;-0.30;99.80
20319;DHT22;10317;47.254;11.314;2023-12-04T10:39:25;-0.40;99.90
20319;DHT22;10317;47.254;11.314;2023-12-04T10:42:03;-0.40;99.90
20319;DHT22;10317;47.254;11.314;2023-12-04T10:44:32;-0.60;99.90
20319;DHT22;10317;47.254;11.314;2023-12-04T10:46:59;-0.80;99.90
20319;DHT22;10317;47.254;11.314;2023-12-04T10:49:27;-0.80;99.90
20319;DHT22;10317;47.254;11.314;2023-12-04T10:51:55;-0.90;99.90
20319;DHT22;10317;47.254;11.314;2023-12-04T10:54:22;-1.00;99.90
20319;DHT22;10317;47.254;11.314;2023-12-04T10:56:52;-1.00;99.90
20319;DHT22;10317;47.254;11.314;2023-12-04T10:59:23;-1.00;99.90
20319;DHT22;10317;47.254;11.314;2023-12-04T11:01:51;-1.00;99.90
20319;DHT22;10317;47.254;11.314;2023-12-04T11:04:20;-1.10;99.90
20319;DHT22;10317;47.254;11.314;2023-12-04T11:06:52;-1.10;99.90
20319;DHT22;10317;47.254;11.314;2023-12-04T11:09:17;-1.10;99.90
20319;DHT22;10317;47.254;11.314;2023-12-04T11:11:48;-1.10;99.90
20319;DHT22;10317;47.254;11.314;2023-12-04T11:14:18;-1.10;99.90
20319;DHT22;10317;47.254;11.314;2023-12-04T11:16:49;-1.00;99.90
20319;DHT22;10317;47.254;11.314;2023-12-04T11:19:39;-1.00;99.90
20319;DHT22;10317;47.254;11.314;2023-12-04T11:22:09;-0.80;99.90
20319;DHT22;10317;47.254;11.314;2023-12-04T11:24:36;-0.60;99.90
20319;DHT22;10317;47.254;11.314;2023-12-04T11:27:02;-0.50;99.90
20319;DHT22;10317;47.254;11.314;2023-12-04T11:29:29;-0.40;99.90
20319;DHT22;10317;47.254;11.314;2023-12-04T11:31:55;-0.40;99.90
20319;DHT22;10317;47.254;11.314;2023-12-04T11:34:21;-0.40;99.90
20319;DHT22;10317;47.254;11.314;2023-12-04T11:36:47;-0.40;99.90
20319;DHT22;10317;47.254;11.314;2023-12-04T11:39:12;-0.40;99.90
20319;DHT22;10317;47.254;11.314;2023-12-04T11:41:40;-0.40;99.90
20319;DHT22;10317;47.254;11.314;2023-12-04T11:44:12;-0.40;99.90
20319;DHT22;10317;47.254;11.314;2023-12-04T11:46:59;-0.40;99.90
20319;DHT22;10317;47.254;11.314;2023-12-04T11:49:29;-0.30;99.90
20319;DHT22;10317;47.254;11.314;2023-12-04T11:51:58;-0.30;99.90
20319;DHT22;10317;47.254;11.314;2023-12-04T11:54:27;-0.30;99.90
20319;DHT22;10317;47.254;11.314;2023-12-04T11:59:41;-0.10;99.90
20319;DHT22;10317;47.254;11.314;2023-12-04T12:02:08;0.10;99.90
20319;DHT22;10317;47.254;11.314;2023-12-04T12:04:35;0.30;99.90
20319;DHT22;10317;47.254;11.314;2023-12-04T12:07:01;0.60;99.90
20319;DHT22;10317;47.254;11.314;2023-12-04T12:09:34;0.80;99.90
20319;DHT22;10317;47.254;11.314;2023-12-04T12:12:03;1.00;99.90
20319;DHT22;10317;47.254;11.314;2023-12-04T12:14:29;1.10;99.10
20319;DHT22;10317;47.254;11.314;2023-12-04T12:16:57;1.20;99.70
20319;DHT22;10317;47.254;11.314;2023-12-04T12:19:23;1.20;99.40
20319;DHT22;10317;47.254;11.314;2023-12-04T12:21:49;1.50;99.90
20319;DHT22;10317;47.254;11.314;2023-12-04T12:24:17;1.80;98.60
20319;DHT22;10317;47.254;11.314;2023-12-04T12:26:43;1.90;98.80
20319;DHT22;10317;47.254;11.314;2023-12-04T12:29:09;2.00;97.90
20319;DHT22;10317;47.254;11.314;2023-12-04T12:31:35;2.20;98.30
20319;DHT22;10317;47.254;11.314;2023-12-04T12:34:00;2.20;97.90
20319;DHT22;10317;47.254;11.314;2023-12-04T12:36:26;2.00;97.30
20319;DHT22;10317;47.254;11.314;2023-12-04T12:38:53;1.90;98.20
20319;DHT22;10317;47.254;11.314;2023-12-04T12:41:19;1.70;98.50
20319;DHT22;10317;47.254;11.314;2023-12-04T12:43:45;1.60;98.70
20319;DHT22;10317;47.254;11.314;2023-12-04T12:46:12;1.60;98.60
20319;DHT22;10317;47.254;11.314;2023-12-04T12:48:39;1.60;99.00
20319;DHT22;10317;47.254;11.314;2023-12-04T12:51:05;1.70;98.90
20319;DHT22;10317;47.254;11.314;2023-12-04T12:53:34;1.80;98.90
20319;DHT22;10317;47.254;11.314;2023-12-04T12:56:00;1.90;98.60
20319;DHT22;10317;47.254;11.314;2023-12-04T12:58:27;2.10;98.60
20319;DHT22;10317;47.254;11.314;2023-12-04T13:00:54;2.10;98.40
20319;DHT22;10317;47.254;11.314;2023-12-04T13:03:20;2.20;98.70
20319;DHT22;10317;47.254;11.314;2023-12-04T13:05:46;2.30;97.80
20319;DHT22;10317;47.254;11.314;2023-12-04T13:08:12;2.20;97.60
20319;DHT22;10317;47.254;11.314;2023-12-04T13:10:38;2.20;98.00
20319;DHT22;10317;47.254;11.314;2023-12-04T13:13:08;2.20;98.10
20319;DHT22;10317;47.254;11.314;2023-12-04T13:15:34;2.10;97.70
20319;DHT22;10317;47.254;11.314;2023-12-04T13:18:00;2.10;98.60
20319;DHT22;10317;47.254;11.314;2023-12-04T13:20:26;2.00;98.40
20319;DHT22;10317;47.254;11.314;2023-12-04T13:22:51;1.90;97.80
20319;DHT22;10317;47.254;11.314;2023-12-04T13:25:17;1.80;98.60
20319;DHT22;10317;47.254;11.314;2023-12-04T13:27:43;1.70;99.20
20319;DHT22;10317;47.254;11.314;2023-12-04T13:30:09;1.60;99.60
20319;DHT22;10317;47.254;11.314;2023-12-04T13:32:36;1.40;99.20
20319;DHT22;10317;47.254;11.314;2023-12-04T13:35:03;1.30;99.50
20319;DHT22;10317;47.254;11.314;2023-12-04T13:37:33;1.20;99.90
20319;DHT22;10317;47.254;11.314;2023-12-04T13:40:01;1.20;99.90
20319;DHT22;10317;47.254;11.314;2023-12-04T13:42:32;1.20;99.90
20319;DHT22;10317;47.254;11.314;2023-12-04T13:45:16;1.20;99.90
20319;DHT22;10317;47.254;11.314;2023-12-04T13:47:42;1.30;99.90
20319;DHT22;10317;47.254;11.314;2023-12-04T13:50:09;1.30;99.90
20319;DHT22;10317;47.254;11.314;2023-12-04T13:52:36;1.20;99.90
20319;DHT22;10317;47.254;11.314;2023-12-04T13:55:02;1.10;99.90
20319;DHT22;10317;47.254;11.314;2023-12-04T13:57:37;1.00;99.90
20319;DHT22;10317;47.254;11.314;2023-12-04T14:00:12;1.00;99.90
20319;DHT22;10317;47.254;11.314;2023-12-04T14:02:38;0.90;99.90
20319;DHT22;10317;47.254;11.314;2023-12-04T14:05:03;1.00;99.90
20319;DHT22;10317;47.254;11.314;2023-12-04T14:07:29;1.00;99.90
20319;DHT22;10317;47.254;11.314;2023-12-04T14:09:55;1.00;99.90
20319;DHT22;10317;47.254;11.314;2023-12-04T14:12:21;1.10;99.90
20319;DHT22;10317;47.254;11.314;2023-12-04T14:14:46;1.10;99.90
20319;DHT22;10317;47.254;11.314;2023-12-04T14:17:13;1.00;99.90
20319;DHT22;10317;47.254;11.314;2023-12-04T14:19:39;0.90;99.90
20319;DHT22;10317;47.254;11.314;2023-12-04T14:22:06;0.80;99.90
20319;DHT22;10317;47.254;11.314;2023-12-04T14:24:31;0.70;99.90
20319;DHT22;10317;47.254;11.314;2023-12-04T14:26:57;0.60;99.90
20319;DHT22;10317;47.254;11.314;2023-12-04T14:29:23;0.50;99.90
20319;DHT22;10317;47.254;11.314;2023-12-04T14:31:48;0.40;99.90
20319;DHT22;10317;47.254;11.314;2023-12-04T14:34:15;0.40;99.90
20319;DHT22;10317;47.254;11.314;2023-12-04T14:36:41;0.30;99.90
20319;DHT22;10317;47.254;11.314;2023-12-04T14:39:06;0.30;99.90
20319;DHT22;10317;47.254;11.314;2023-12-04T14:41:32;0.30;99.90
20319;DHT22;10317;47.254;11.314;2023-12-04T14:43:58;0.20;99.90
20319;DHT22;10317;47.254;11.314;2023-12-04T14:46:23;0.10;99.90
20319;DHT22;10317;47.254;11.314;2023-12-04T14:48:49;0.10;99.90
20319;DHT22;10317;47.254;11.314;2023-12-04T14:51:15;0.00;99.90
20319;DHT22;10317;47.254;11.314;2023-12-04T14:53:41;-0.10;99.90
20319;DHT22;10317;47.254;11.314;2023-12-04T14:56:26;-0.20;99.90
20319;DHT22;10317;47.254;11.314;2023-12-04T14:59:10;-0.30;99.90
20319;DHT22;10317;47.254;11.314;2023-12-04T15:01:54;-0.40;99.90
20319;DHT22;10317;47.254;11.314;2023-12-04T15:04:38;-0.50;99.90
20319;DHT22;10317;47.254;11.314;2023-12-04T15:07:33;-0.50;99.90
20319;DHT22;10317;47.254;11.314;2023-12-04T15:10:33;-0.50;99.90
20319;DHT22;10317;47.254;11.314;2023-12-04T15:13:17;-0.60;99.90
20319;DHT22;10317;47.254;11.314;2023-12-04T15:16:02;-0.60;99.90
20319;DHT22;10317;47.254;11.314;2023-12-04T15:18:44;-0.60;99.90
20319;DHT22;10317;47.254;11.314;2023-12-04T15:21:22;-0.60;99.90
20319;DHT22;10317;47.254;11.314;2023-12-04T15:23:48;-0.60;99.90
20319;DHT22;10317;47.254;11.314;2023-12-04T15:26:15;-0.60;99.90